• Join FlightAware (Why Join?)
  • Login
  • US Flag 
11:11AM EDT


 

Airport Tracker/Info


-or-


 

Live Flight TrackerFlight Track Log ✈ SWA59 ✈ 03-May-2013 ✈ KDAL - KHOU

Flight Track Log - Related Links

Times and Time Zones

All times are in EDT time to prevent confusion due to time zone crossing. See the SWA59 flight status page for this flight to view local times or setup timezone preferences in your user account.

Time Position Orientation Groundspeed Altitude Reporting Facility
EDT Latitude Longitude Course Direction KTS MPH feet Rate Location/Type
10:09PM 32.8833 -96.8833 301° West 205 236 3,600  Level Dallas / Fort Worth TRACON
10:11PM 32.8744 -96.9756 263° West 246 283 10,300 3,540 Climbing Fort Worth Center
10:12PM 32.7825 -96.9883 187° South 230 265 13,400 3,360 Climbing Fort Worth Center
10:13PM 32.6803 -96.9742 173° South 309 356 17,100 3,720 Climbing Fort Worth Center
10:14PM 32.5653 -96.9575 173° South 400 460 20,900 3,540 Climbing Fort Worth Center
10:15PM 32.4506 -96.9408 173° South 422 486 24,200 3,000 Climbing Fort Worth Center
10:16PM 32.3292 -96.9217 172° South 434 499 27,000 2,760 Climbing Fort Worth Center
10:17PM 32.2186 -96.9025 172° South 445 512 29,800 2,700 Climbing Fort Worth Center
10:18PM 32.0911 -96.8836 173° South 452 520 32,500 1,560 Climbing Fort Worth Center
10:19PM 31.9617 -96.8672 174° South 464 534 33,000 120 Climbing Fort Worth Center
10:21PM 31.6436 -96.8211 173° South 484 557 33,000  Level Houston Center
10:22PM 31.5089 -96.8017 173° South 480 552 33,000  Level Houston Center
10:23PM 31.3769 -96.7553 163° South 491 565 33,000  Level Houston Center
10:24PM 31.2489 -96.6942 158° South 491 565 33,000 -1,020 Level Houston Center
10:25PM 31.1192 -96.6328 158° South 493 567 31,000 -2,460 Descending Houston Center
10:26PM 30.9900 -96.5714 158° South 494 568 28,000 -2,760 Descending Houston Center
10:27PM 30.8633 -96.5114 158° South 486 559 25,400 -2,580 Descending Houston Center
10:29PM 30.7417 -96.4550 158° South 471 542 22,800 -2,520 Descending Houston Center
10:30PM 30.6264 -96.4019 158° South 448 516 20,300 -2,580 Descending Houston Center
10:30PM 30.5528 -96.3678 158° South 429 494 18,800 -2,280 Descending Houston Center
10:31PM 30.5167 -96.3503 157° South 429 494 18,000 -2,460 Descending Houston Center
10:31PM 30.4372 -96.3153 159° South 409 471 16,300 -1,980 Descending Houston Center
10:32PM 30.4094 -96.3008 156° South 414 476 16,000 -2,340 Descending Houston Center
10:32PM 30.3239 -96.2625 159° South 396 456 13,700 -3,300 Descending Houston Center
10:33PM 30.2886 -96.2450 157° South 397 457 12,700 -2,340 Descending Houston Center
10:33PM 30.2364 -96.2217 159° South 384 442 11,600 -1,920 Descending Houston Center
10:34PM 30.1894 -96.1989 157° South 384 442 10,800 -1,380 Descending Houston Center
10:34PM 30.1267 -96.1664 156° South 367 422 10,100 -900 Descending Houston Center
10:35PM 30.1097 -96.1558 152° Southeast 370 426 9,900  Descending Houston Center
10:35PM 30.0436 -96.1008 144° Southeast 365 420 10,100  Climbing Houston Center
10:36PM 30.0325 -96.0814 123° Southeast 370 426 9,900  Descending Houston Center
10:36PM 29.9939 -96.0100 122° Southeast 363 418 10,100 60 Climbing Houston Center
10:37PM 29.9678 -95.9672 125° Southeast 367 422 10,000  Descending Houston Center
10:37PM 29.9419 -95.9197 122° Southeast 367 422 10,100 -120 Climbing Houston Center
10:38PM 29.9111 -95.8694 125° Southeast 367 422 9,900  Descending Houston Center
10:38PM 29.8803 -95.8158 124° Southeast 366 421 10,100  Climbing Houston Center
10:39PM 29.8561 -95.7722 123° Southeast 364 419 9,900 -540 Descending Houston Center
10:39PM 29.8233 -95.7167 124° Southeast 339 390 9,600 -900 Descending Houston Center
10:40PM 29.8039 -95.6822 123° Southeast 341 392 9,000 -1,380 Descending Houston Center
10:40PM 29.7733 -95.6286 123° Southeast 318 366 8,200 -1,380 Descending Houston Center
10:41PM 29.7553 -95.5978 124° Southeast 320 368 7,600 -1,320 Descending Houston Center
10:41PM 29.7261 -95.5475 124° Southeast 308 354 6,900 -1,380 Descending Houston Center
10:42PM 29.7086 -95.5175 124° Southeast 306 352 6,200 -900 Descending Houston Center
10:42PM 29.6814 -95.4711 124° Southeast 286 329 6,000 -300 Descending Houston Center
10:43PM 29.6664 -95.4447 123° Southeast 283 326 5,900 60 Descending Houston Center
10:43PM 29.6417 -95.4036 125° Southeast 250 288 6,100  Climbing Houston Center
10:44PM 29.6261 -95.3794 127° Southeast 255 293 5,900  Descending Houston Center
10:44PM 29.5917 -95.3400 135° Southeast 252 290 6,100  Climbing Houston Center
10:45PM 29.5767 -95.3233 136° Southeast 252 290 5,900 -1,020 Descending Houston Center
10:45PM 29.5425 -95.2836 135° Southeast 250 288 5,100 -1,500 Descending Houston Center
10:46PM 29.5178 -95.2572 137° Southeast 251 289 4,400 -1,500 Descending Houston Center
10:46PM 29.4933 -95.2294 135° Southeast 236 272 3,600 -2,100 Descending Houston Center
10:47PM 29.4886 -95.1994 100° East 233 268 2,300 -1,500 Descending Houston Center
10:47PM 29.5119 -95.1817 34° Northeast 177 204 2,100 -300 Descending Houston Center
10:48PM 29.5269 -95.1708 32° Northeast 192 221 2,000 60 Descending Houston Center
10:48PM 29.5478 -95.1819 335° Northwest 145 167 2,200 -120 Climbing Houston Center
10:49PM 29.5603 -95.1950 318° Northwest 167 192 1,900 -540 Descending Houston Center
10:49PM 29.5800 -95.2117 324° Northwest 153 176 1,700 -720 Descending Houston Center
10:50PM 29.5939 -95.2225 326° Northwest 156 180 1,200 -720 Descending Houston Center
10:50PM 29.6072 -95.2347 321° Northwest 117 135 1,000 -600 Descending Houston Center
10:51PM 29.6197 -95.2475 318° Northwest 138 159 600 -720 Descending Houston Center
10:51PM 29.6311 -95.2656 306° West 126 145 300 -600 Descending Houston Center